sensor_id;sensor_type;location;lat;lon;timestamp;temperature;humidity
18191;DHT22;47004;51.366;12.348;2024-01-15T00:00:28;1.10;99.90
18191;DHT22;47004;51.366;12.348;2024-01-15T00:02:30;1.10;99.90
18191;DHT22;47004;51.366;12.348;2024-01-15T00:04:36;1.00;99.90
18191;DHT22;47004;51.366;12.348;2024-01-15T00:06:39;1.10;99.90
18191;DHT22;47004;51.366;12.348;2024-01-15T00:08:39;1.10;99.90
18191;DHT22;47004;51.366;12.348;2024-01-15T00:10:43;1.20;99.90
18191;DHT22;47004;51.366;12.348;2024-01-15T00:12:45;1.00;99.90
18191;DHT22;47004;51.366;12.348;2024-01-15T00:14:47;1.00;99.90
18191;DHT22;47004;51.366;12.348;2024-01-15T00:16:49;1.00;99.90
18191;DHT22;47004;51.366;12.348;2024-01-15T00:18:52;1.00;99.90
18191;DHT22;47004;51.366;12.348;2024-01-15T00:20:53;1.00;99.90
18191;DHT22;47004;51.366;12.348;2024-01-15T00:22:56;1.00;99.90
18191;DHT22;47004;51.366;12.348;2024-01-15T00:24:57;1.00;99.90
18191;DHT22;47004;51.366;12.348;2024-01-15T00:27:01;1.00;99.90
18191;DHT22;47004;51.366;12.348;2024-01-15T00:29:03;1.00;99.90
18191;DHT22;47004;51.366;12.348;2024-01-15T00:31:05;1.00;99.90
18191;DHT22;47004;51.366;12.348;2024-01-15T00:33:07;0.90;99.90
18191;DHT22;47004;51.366;12.348;2024-01-15T00:35:09;0.90;99.90
18191;DHT22;47004;51.366;12.348;2024-01-15T00:37:11;0.90;99.90
18191;DHT22;47004;51.366;12.348;2024-01-15T00:39:13;0.90;99.90
18191;DHT22;47004;51.366;12.348;2024-01-15T00:41:15;0.90;99.90
18191;DHT22;47004;51.366;12.348;2024-01-15T00:43:18;0.90;99.90
18191;DHT22;47004;51.366;12.348;2024-01-15T00:45:20;0.90;99.90
18191;DHT22;47004;51.366;12.348;2024-01-15T00:47:22;0.90;99.90
18191;DHT22;47004;51.366;12.348;2024-01-15T00:49:23;0.90;99.90
18191;DHT22;47004;51.366;12.348;2024-01-15T00:51:25;0.90;99.90
18191;DHT22;47004;51.366;12.348;2024-01-15T00:53:27;0.90;99.90
18191;DHT22;47004;51.366;12.348;2024-01-15T00:55:29;0.90;99.90
18191;DHT22;47004;51.366;12.348;2024-01-15T00:57:31;0.80;99.90
18191;DHT22;47004;51.366;12.348;2024-01-15T00:59:35;0.90;99.90
18191;DHT22;47004;51.366;12.348;2024-01-15T01:01:36;1.00;99.90
18191;DHT22;47004;51.366;12.348;2024-01-15T01:03:43;0.90;99.90
18191;DHT22;47004;51.366;12.348;2024-01-15T01:05:45;0.90;99.90
18191;DHT22;47004;51.366;12.348;2024-01-15T01:07:47;0.90;99.90
18191;DHT22;47004;51.366;12.348;2024-01-15T01:09:49;0.90;99.90
18191;DHT22;47004;51.366;12.348;2024-01-15T01:11:51;0.80;99.90
18191;DHT22;47004;51.366;12.348;2024-01-15T01:13:53;0.90;99.90
18191;DHT22;47004;51.366;12.348;2024-01-15T01:15:58;0.90;99.90
18191;DHT22;47004;51.366;12.348;2024-01-15T01:18:00;0.90;99.90
18191;DHT22;47004;51.366;12.348;2024-01-15T01:20:01;0.90;99.90
18191;DHT22;47004;51.366;12.348;2024-01-15T01:22:05;0.90;99.90
18191;DHT22;47004;51.366;12.348;2024-01-15T01:24:07;0.90;99.90
18191;DHT22;47004;51.366;12.348;2024-01-15T01:26:09;0.90;99.90
18191;DHT22;47004;51.366;12.348;2024-01-15T01:28:10;0.90;99.90
18191;DHT22;47004;51.366;12.348;2024-01-15T01:30:13;0.90;99.90
18191;DHT22;47004;51.366;12.348;2024-01-15T01:32:15;0.90;99.90
18191;DHT22;47004;51.366;12.348;2024-01-15T01:34:17;0.90;99.90
18191;DHT22;47004;51.366;12.348;2024-01-15T01:36:19;0.90;99.90
18191;DHT22;47004;51.366;12.348;2024-01-15T01:38:20;0.90;99.90
18191;DHT22;47004;51.366;12.348;2024-01-15T01:40:22;0.90;99.90
18191;DHT22;47004;51.366;12.348;2024-01-15T01:42:24;1.00;99.90
18191;DHT22;47004;51.366;12.348;2024-01-15T01:44:25;1.00;99.90
18191;DHT22;47004;51.366;12.348;2024-01-15T01:46:27;1.00;99.90
18191;DHT22;47004;51.366;12.348;2024-01-15T01:48:31;1.00;99.90
18191;DHT22;47004;51.366;12.348;2024-01-15T01:50:34;0.90;99.90
18191;DHT22;47004;51.366;12.348;2024-01-15T01:52:36;0.90;99.90
18191;DHT22;47004;51.366;12.348;2024-01-15T01:54:38;0.90;99.90
18191;DHT22;47004;51.366;12.348;2024-01-15T01:56:41;0.90;99.90
18191;DHT22;47004;51.366;12.348;2024-01-15T01:58:44;0.90;99.90
18191;DHT22;47004;51.366;12.348;2024-01-15T02:00:46;0.80;99.90
18191;DHT22;47004;51.366;12.348;2024-01-15T02:02:48;0.70;99.90
18191;DHT22;47004;51.366;12.348;2024-01-15T02:04:50;0.80;99.90
18191;DHT22;47004;51.366;12.348;2024-01-15T02:06:52;0.80;99.90
18191;DHT22;47004;51.366;12.348;2024-01-15T02:08:55;0.70;99.90
18191;DHT22;47004;51.366;12.348;2024-01-15T02:10:57;0.70;99.90
18191;DHT22;47004;51.366;12.348;2024-01-15T02:13:01;0.70;99.90
18191;DHT22;47004;51.366;12.348;2024-01-15T02:15:04;0.60;99.90
18191;DHT22;47004;51.366;12.348;2024-01-15T02:17:05;0.60;99.90
18191;DHT22;47004;51.366;12.348;2024-01-15T02:19:07;0.60;99.90
18191;DHT22;47004;51.366;12.348;2024-01-15T02:21:17;0.60;99.90
18191;DHT22;47004;51.366;12.348;2024-01-15T02:23:21;0.60;99.90
18191;DHT22;47004;51.366;12.348;2024-01-15T02:25:23;0.60;99.90
18191;DHT22;47004;51.366;12.348;2024-01-15T02:27:25;0.60;99.90
18191;DHT22;47004;51.366;12.348;2024-01-15T02:29:27;0.60;99.90
18191;DHT22;47004;51.366;12.348;2024-01-15T02:31:29;0.50;99.90
18191;DHT22;47004;51.366;12.348;2024-01-15T02:33:31;0.60;99.90
18191;DHT22;47004;51.366;12.348;2024-01-15T02:35:33;0.60;99.90
18191;DHT22;47004;51.366;12.348;2024-01-15T02:37:34;0.50;99.90
18191;DHT22;47004;51.366;12.348;2024-01-15T02:39:38;0.50;99.90
18191;DHT22;47004;51.366;12.348;2024-01-15T02:41:40;0.50;99.90
18191;DHT22;47004;51.366;12.348;2024-01-15T02:43:42;0.50;99.90
18191;DHT22;47004;51.366;12.348;2024-01-15T02:45:44;0.60;99.90
18191;DHT22;47004;51.366;12.348;2024-01-15T02:47:46;0.50;99.90
18191;DHT22;47004;51.366;12.348;2024-01-15T02:49:48;0.50;99.90
18191;DHT22;47004;51.366;12.348;2024-01-15T02:51:49;0.60;99.90
18191;DHT22;47004;51.366;12.348;2024-01-15T02:53:51;0.60;99.90
18191;DHT22;47004;51.366;12.348;2024-01-15T02:55:55;0.60;99.90
18191;DHT22;47004;51.366;12.348;2024-01-15T02:57:57;0.50;99.90
18191;DHT22;47004;51.366;12.348;2024-01-15T02:59:59;0.50;99.90
18191;DHT22;47004;51.366;12.348;2024-01-15T03:02:01;0.50;99.90
18191;DHT22;47004;51.366;12.348;2024-01-15T03:04:03;0.50;99.90
18191;DHT22;47004;51.366;12.348;2024-01-15T03:06:05;0.50;99.90
18191;DHT22;47004;51.366;12.348;2024-01-15T03:08:07;0.50;99.90
18191;DHT22;47004;51.366;12.348;2024-01-15T03:10:10;0.50;99.90
18191;DHT22;47004;51.366;12.348;2024-01-15T03:12:13;0.50;99.90
18191;DHT22;47004;51.366;12.348;2024-01-15T03:14:15;0.50;99.90
18191;DHT22;47004;51.366;12.348;2024-01-15T03:16:17;0.40;99.90
18191;DHT22;47004;51.366;12.348;2024-01-15T03:18:20;0.40;99.90
18191;DHT22;47004;51.366;12.348;2024-01-15T03:20:22;0.40;99.90
18191;DHT22;47004;51.366;12.348;2024-01-15T03:22:24;0.40;99.90
18191;DHT22;47004;51.366;12.348;2024-01-15T03:24:26;0.40;99.90
18191;DHT22;47004;51.366;12.348;2024-01-15T03:26:28;0.30;99.90
18191;DHT22;47004;51.366;12.348;2024-01-15T03:28:31;0.30;99.90
18191;DHT22;47004;51.366;12.348;2024-01-15T03:30:32;0.30;99.90
18191;DHT22;47004;51.366;12.348;2024-01-15T03:32:34;0.40;99.90
18191;DHT22;47004;51.366;12.348;2024-01-15T03:34:36;0.30;99.90
18191;DHT22;47004;51.366;12.348;2024-01-15T03:36:38;0.20;99.90
18191;DHT22;47004;51.366;12.348;2024-01-15T03:38:41;0.40;99.90
18191;DHT22;47004;51.366;12.348;2024-01-15T03:40:43;0.20;99.90
18191;DHT22;47004;51.366;12.348;2024-01-15T03:42:45;0.50;99.90
18191;DHT22;47004;51.366;12.348;2024-01-15T03:44:48;0.10;99.90
18191;DHT22;47004;51.366;12.348;2024-01-15T03:46:50;0.20;99.90
18191;DHT22;47004;51.366;12.348;2024-01-15T03:48:52;0.20;99.90
18191;DHT22;47004;51.366;12.348;2024-01-15T03:50:53;0.10;99.90
18191;DHT22;47004;51.366;12.348;2024-01-15T03:52:55;0.20;99.90
18191;DHT22;47004;51.366;12.348;2024-01-15T03:54:57;0.10;99.90
18191;DHT22;47004;51.366;12.348;2024-01-15T03:56:59;0.10;99.90
18191;DHT22;47004;51.366;12.348;2024-01-15T03:59:01;0.10;99.90
18191;DHT22;47004;51.366;12.348;2024-01-15T04:01:07;0.10;99.90
18191;DHT22;47004;51.366;12.348;2024-01-15T04:03:09;0.10;99.90
18191;DHT22;47004;51.366;12.348;2024-01-15T04:05:12;0.00;99.90
18191;DHT22;47004;51.366;12.348;2024-01-15T04:07:13;0.00;99.90
18191;DHT22;47004;51.366;12.348;2024-01-15T04:09:16;0.10;99.90
18191;DHT22;47004;51.366;12.348;2024-01-15T04:11:18;0.00;99.90
18191;DHT22;47004;51.366;12.348;2024-01-15T04:13:19;0.10;99.90
18191;DHT22;47004;51.366;12.348;2024-01-15T04:15:20;0.20;99.90
18191;DHT22;47004;51.366;12.348;2024-01-15T04:17:23;0.20;99.90
18191;DHT22;47004;51.366;12.348;2024-01-15T04:19:25;0.20;99.90
18191;DHT22;47004;51.366;12.348;2024-01-15T04:21:27;0.30;99.90
18191;DHT22;47004;51.366;12.348;2024-01-15T04:23:29;0.20;99.90
18191;DHT22;47004;51.366;12.348;2024-01-15T04:25:31;0.20;99.90
18191;DHT22;47004;51.366;12.348;2024-01-15T04:27:33;0.20;99.90
18191;DHT22;47004;51.366;12.348;2024-01-15T04:29:37;0.20;99.90
18191;DHT22;47004;51.366;12.348;2024-01-15T04:31:38;0.20;99.90
18191;DHT22;47004;51.366;12.348;2024-01-15T04:33:41;0.20;99.90
18191;DHT22;47004;51.366;12.348;2024-01-15T04:35:43;0.20;99.90
18191;DHT22;47004;51.366;12.348;2024-01-15T04:37:45;0.10;99.90
18191;DHT22;47004;51.366;12.348;2024-01-15T04:39:47;0.10;99.90
18191;DHT22;47004;51.366;12.348;2024-01-15T04:41:49;0.10;99.90
18191;DHT22;47004;51.366;12.348;2024-01-15T04:43:51;0.10;99.90
18191;DHT22;47004;51.366;12.348;2024-01-15T04:45:53;0.10;99.90
18191;DHT22;47004;51.366;12.348;2024-01-15T04:47:55;0.10;99.90
18191;DHT22;47004;51.366;12.348;2024-01-15T04:49:59;0.10;99.90
18191;DHT22;47004;51.366;12.348;2024-01-15T04:52:01;0.10;99.90
18191;DHT22;47004;51.366;12.348;2024-01-15T04:54:04;0.10;99.90
18191;DHT22;47004;51.366;12.348;2024-01-15T04:56:06;0.10;99.90
18191;DHT22;47004;51.366;12.348;2024-01-15T04:58:08;0.70;99.90
18191;DHT22;47004;51.366;12.348;2024-01-15T05:00:11;0.10;99.90
18191;DHT22;47004;51.366;12.348;2024-01-15T05:02:14;0.10;99.90
18191;DHT22;47004;51.366;12.348;2024-01-15T05:04:16;0.10;99.90
18191;DHT22;47004;51.366;12.348;2024-01-15T05:06:19;0.10;99.90
18191;DHT22;47004;51.366;12.348;2024-01-15T05:08:21;0.10;99.90
18191;DHT22;47004;51.366;12.348;2024-01-15T05:10:23;0.20;99.90
18191;DHT22;47004;51.366;12.348;2024-01-15T05:12:24;0.20;99.90
18191;DHT22;47004;51.366;12.348;2024-01-15T05:14:26;0.20;99.90
18191;DHT22;47004;51.366;12.348;2024-01-15T05:16:28;0.30;99.90
18191;DHT22;47004;51.366;12.348;2024-01-15T05:18:30;0.30;99.90
18191;DHT22;47004;51.366;12.348;2024-01-15T05:20:32;0.30;99.90
18191;DHT22;47004;51.366;12.348;2024-01-15T05:22:35;0.30;99.90
18191;DHT22;47004;51.366;12.348;2024-01-15T05:24:37;0.30;99.90
18191;DHT22;47004;51.366;12.348;2024-01-15T05:26:39;0.30;99.90
18191;DHT22;47004;51.366;12.348;2024-01-15T05:28:41;0.20;99.90
18191;DHT22;47004;51.366;12.348;2024-01-15T05:30:44;0.90;99.90
18191;DHT22;47004;51.366;12.348;2024-01-15T05:32:46;0.40;99.90
18191;DHT22;47004;51.366;12.348;2024-01-15T05:34:49;0.70;99.90
18191;DHT22;47004;51.366;12.348;2024-01-15T05:36:51;0.30;99.90
18191;DHT22;47004;51.366;12.348;2024-01-15T05:38:55;0.30;99.90
18191;DHT22;47004;51.366;12.348;2024-01-15T05:40:57;0.30;99.90
18191;DHT22;47004;51.366;12.348;2024-01-15T05:42:58;0.30;99.90
18191;DHT22;47004;51.366;12.348;2024-01-15T05:44:59;0.30;99.90
18191;DHT22;47004;51.366;12.348;2024-01-15T05:47:04;0.30;99.90
18191;DHT22;47004;51.366;12.348;2024-01-15T05:49:05;0.30;99.90
18191;DHT22;47004;51.366;12.348;2024-01-15T05:51:06;0.30;99.90
18191;DHT22;47004;51.366;12.348;2024-01-15T05:53:09;0.30;99.90
18191;DHT22;47004;51.366;12.348;2024-01-15T05:55:12;0.70;99.90
18191;DHT22;47004;51.366;12.348;2024-01-15T05:57:14;0.30;99.90
18191;DHT22;47004;51.366;12.348;2024-01-15T05:59:17;0.40;99.90
18191;DHT22;47004;51.366;12.348;2024-01-15T06:01:19;0.40;99.90
18191;DHT22;47004;51.366;12.348;2024-01-15T06:03:21;0.40;99.90
18191;DHT22;47004;51.366;12.348;2024-01-15T06:05:23;0.40;99.90
18191;DHT22;47004;51.366;12.348;2024-01-15T06:07:25;0.40;99.90
18191;DHT22;47004;51.366;12.348;2024-01-15T06:09:27;0.40;99.90
18191;DHT22;47004;51.366;12.348;2024-01-15T06:11:31;0.40;99.90
18191;DHT22;47004;51.366;12.348;2024-01-15T06:13:32;0.60;99.90
18191;DHT22;47004;51.366;12.348;2024-01-15T06:15:34;0.80;99.90
18191;DHT22;47004;51.366;12.348;2024-01-15T06:17:36;0.40;99.90
18191;DHT22;47004;51.366;12.348;2024-01-15T06:19:38;0.50;99.90
18191;DHT22;47004;51.366;12.348;2024-01-15T06:21:40;0.40;99.90
18191;DHT22;47004;51.366;12.348;2024-01-15T06:23:42;0.40;99.90
18191;DHT22;47004;51.366;12.348;2024-01-15T06:25:44;0.40;99.90
18191;DHT22;47004;51.366;12.348;2024-01-15T06:27:47;0.40;99.90
18191;DHT22;47004;51.366;12.348;2024-01-15T06:29:48;0.40;99.90
18191;DHT22;47004;51.366;12.348;2024-01-15T06:31:50;0.40;99.90
18191;DHT22;47004;51.366;12.348;2024-01-15T06:33:52;0.20;99.90
18191;DHT22;47004;51.366;12.348;2024-01-15T06:35:53;0.60;99.90
18191;DHT22;47004;51.366;12.348;2024-01-15T06:37:55;0.50;99.90
18191;DHT22;47004;51.366;12.348;2024-01-15T06:39:56;0.50;99.90
18191;DHT22;47004;51.366;12.348;2024-01-15T06:41:58;0.50;99.90
18191;DHT22;47004;51.366;12.348;2024-01-15T06:44:02;0.50;99.90
18191;DHT22;47004;51.366;12.348;2024-01-15T06:46:04;0.50;99.90
18191;DHT22;47004;51.366;12.348;2024-01-15T06:48:06;0.40;99.90
18191;DHT22;47004;51.366;12.348;2024-01-15T06:50:09;0.40;99.90
18191;DHT22;47004;51.366;12.348;2024-01-15T06:52:11;0.70;99.90
18191;DHT22;47004;51.366;12.348;2024-01-15T06:54:14;0.50;99.90
18191;DHT22;47004;51.366;12.348;2024-01-15T06:56:16;0.40;99.90
18191;DHT22;47004;51.366;12.348;2024-01-15T06:58:18;0.40;99.90
18191;DHT22;47004;51.366;12.348;2024-01-15T07:00:22;0.60;99.90
18191;DHT22;47004;51.366;12.348;2024-01-15T07:02:24;0.50;99.90
18191;DHT22;47004;51.366;12.348;2024-01-15T07:04:28;0.40;99.90
18191;DHT22;47004;51.366;12.348;2024-01-15T07:06:30;0.40;99.90
18191;DHT22;47004;51.366;12.348;2024-01-15T07:08:32;1.20;99.90
18191;DHT22;47004;51.366;12.348;2024-01-15T07:10:34;0.50;99.90
18191;DHT22;47004;51.366;12.348;2024-01-15T07:12:35;0.60;99.90
18191;DHT22;47004;51.366;12.348;2024-01-15T07:14:37;0.40;99.90
18191;DHT22;47004;51.366;12.348;2024-01-15T07:16:40;0.90;99.90
18191;DHT22;47004;51.366;12.348;2024-01-15T07:18:42;0.50;99.90
18191;DHT22;47004;51.366;12.348;2024-01-15T07:20:44;0.50;99.90
18191;DHT22;47004;51.366;12.348;2024-01-15T07:22:48;0.50;99.90
18191;DHT22;47004;51.366;12.348;2024-01-15T07:24:51;0.50;99.90
18191;DHT22;47004;51.366;12.348;2024-01-15T07:26:53;0.50;99.90
18191;DHT22;47004;51.366;12.348;2024-01-15T07:28:55;0.50;99.90
18191;DHT22;47004;51.366;12.348;2024-01-15T07:30:58;1.10;99.90
18191;DHT22;47004;51.366;12.348;2024-01-15T07:33:00;0.50;99.90
18191;DHT22;47004;51.366;12.348;2024-01-15T07:35:07;0.50;99.90
18191;DHT22;47004;51.366;12.348;2024-01-15T07:37:12;0.50;99.90
18191;DHT22;47004;51.366;12.348;2024-01-15T07:39:14;0.40;99.90
18191;DHT22;47004;51.366;12.348;2024-01-15T07:41:16;0.50;99.90
18191;DHT22;47004;51.366;12.348;2024-01-15T07:43:18;0.60;99.90
18191;DHT22;47004;51.366;12.348;2024-01-15T07:45:20;0.50;99.90
18191;DHT22;47004;51.366;12.348;2024-01-15T07:47:22;0.50;99.90
18191;DHT22;47004;51.366;12.348;2024-01-15T07:49:27;0.50;99.90
18191;DHT22;47004;51.366;12.348;2024-01-15T07:51:29;0.50;99.90
18191;DHT22;47004;51.366;12.348;2024-01-15T07:53:31;0.50;99.90
18191;DHT22;47004;51.366;12.348;2024-01-15T07:55:33;0.50;99.90
18191;DHT22;47004;51.366;12.348;2024-01-15T07:57:37;0.50;99.90
18191;DHT22;47004;51.366;12.348;2024-01-15T07:59:39;0.40;99.90
18191;DHT22;47004;51.366;12.348;2024-01-15T08:01:42;0.50;99.90
18191;DHT22;47004;51.366;12.348;2024-01-15T08:03:47;0.50;99.90
18191;DHT22;47004;51.366;12.348;2024-01-15T08:05:50;0.50;99.90
18191;DHT22;47004;51.366;12.348;2024-01-15T08:07:53;0.50;99.90
18191;DHT22;47004;51.366;12.348;2024-01-15T08:09:55;0.70;99.90
18191;DHT22;47004;51.366;12.348;2024-01-15T08:11:56;0.60;99.90
18191;DHT22;47004;51.366;12.348;2024-01-15T08:13:59;0.60;99.90
18191;DHT22;47004;51.366;12.348;2024-01-15T08:16:01;0.60;99.90
18191;DHT22;47004;51.366;12.348;2024-01-15T08:18:03;1.20;99.90
18191;DHT22;47004;51.366;12.348;2024-01-15T08:20:05;0.70;99.90
18191;DHT22;47004;51.366;12.348;2024-01-15T08:22:09;0.60;99.90
18191;DHT22;47004;51.366;12.348;2024-01-15T08:24:11;0.60;99.90
18191;DHT22;47004;51.366;12.348;2024-01-15T08:26:13;0.70;99.90
18191;DHT22;47004;51.366;12.348;2024-01-15T08:28:15;0.70;99.90
18191;DHT22;47004;51.366;12.348;2024-01-15T08:30:17;0.70;99.90
18191;DHT22;47004;51.366;12.348;2024-01-15T08:32:19;0.80;99.90
18191;DHT22;47004;51.366;12.348;2024-01-15T08:34:21;0.80;99.90
18191;DHT22;47004;51.366;12.348;2024-01-15T08:36:23;0.80;99.90
18191;DHT22;47004;51.366;12.348;2024-01-15T08:38:27;0.90;99.90
18191;DHT22;47004;51.366;12.348;2024-01-15T08:40:29;0.80;99.90
18191;DHT22;47004;51.366;12.348;2024-01-15T08:42:31;0.80;99.90
18191;DHT22;47004;51.366;12.348;2024-01-15T08:44:33;0.80;99.90
18191;DHT22;47004;51.366;12.348;2024-01-15T08:46:35;0.80;99.90
18191;DHT22;47004;51.366;12.348;2024-01-15T08:48:38;1.00;99.90
18191;DHT22;47004;51.366;12.348;2024-01-15T08:50:40;0.90;99.90
18191;DHT22;47004;51.366;12.348;2024-01-15T08:52:42;0.80;99.90
18191;DHT22;47004;51.366;12.348;2024-01-15T08:54:45;0.80;99.90
18191;DHT22;47004;51.366;12.348;2024-01-15T08:56:47;0.80;99.90
18191;DHT22;47004;51.366;12.348;2024-01-15T08:58:49;0.90;99.90
18191;DHT22;47004;51.366;12.348;2024-01-15T09:00:51;1.00;99.90
18191;DHT22;47004;51.366;12.348;2024-01-15T09:02:53;1.00;99.90
18191;DHT22;47004;51.366;12.348;2024-01-15T09:04:56;1.10;99.90
18191;DHT22;47004;51.366;12.348;2024-01-15T09:06:57;1.20;99.90
18191;DHT22;47004;51.366;12.348;2024-01-15T09:08:59;1.20;99.90
18191;DHT22;47004;51.366;12.348;2024-01-15T09:11:02;1.30;99.90
18191;DHT22;47004;51.366;12.348;2024-01-15T09:13:06;1.30;99.90
18191;DHT22;47004;51.366;12.348;2024-01-15T09:15:09;1.30;99.90
18191;DHT22;47004;51.366;12.348;2024-01-15T09:17:11;1.30;99.90
18191;DHT22;47004;51.366;12.348;2024-01-15T09:19:13;1.30;99.90
18191;DHT22;47004;51.366;12.348;2024-01-15T09:21:15;1.40;99.90
18191;DHT22;47004;51.366;12.348;2024-01-15T09:23:17;1.40;99.90
18191;DHT22;47004;51.366;12.348;2024-01-15T09:25:19;1.40;99.90
18191;DHT22;47004;51.366;12.348;2024-01-15T09:27:22;1.50;99.90
18191;DHT22;47004;51.366;12.348;2024-01-15T09:29:26;1.40;99.90
18191;DHT22;47004;51.366;12.348;2024-01-15T09:31:28;1.50;99.90
18191;DHT22;47004;51.366;12.348;2024-01-15T09:33:31;1.50;99.90
18191;DHT22;47004;51.366;12.348;2024-01-15T09:35:32;1.50;99.90
18191;DHT22;47004;51.366;12.348;2024-01-15T09:37:34;1.50;99.90
18191;DHT22;47004;51.366;12.348;2024-01-15T09:39:37;1.80;99.90
18191;DHT22;47004;51.366;12.348;2024-01-15T09:41:40;1.50;99.90
18191;DHT22;47004;51.366;12.348;2024-01-15T09:43:44;1.50;99.90
18191;DHT22;47004;51.366;12.348;2024-01-15T09:45:46;1.50;99.90
18191;DHT22;47004;51.366;12.348;2024-01-15T09:47:48;1.50;99.90
18191;DHT22;47004;51.366;12.348;2024-01-15T09:49:49;1.50;99.90
18191;DHT22;47004;51.366;12.348;2024-01-15T09:51:51;1.50;99.90
18191;DHT22;47004;51.366;12.348;2024-01-15T09:53:54;1.50;99.90
18191;DHT22;47004;51.366;12.348;2024-01-15T09:55:57;1.20;99.90
18191;DHT22;47004;51.366;12.348;2024-01-15T09:58:00;1.70;99.90
18191;DHT22;47004;51.366;12.348;2024-01-15T10:00:06;1.70;99.90
18191;DHT22;47004;51.366;12.348;2024-01-15T10:02:08;1.70;99.90
18191;DHT22;47004;51.366;12.348;2024-01-15T10:04:11;1.70;99.90
18191;DHT22;47004;51.366;12.348;2024-01-15T10:06:15;1.70;99.90
18191;DHT22;47004;51.366;12.348;2024-01-15T10:08:16;1.70;99.90
18191;DHT22;47004;51.366;12.348;2024-01-15T10:10:19;1.70;99.90
18191;DHT22;47004;51.366;12.348;2024-01-15T10:12:22;1.70;99.90
18191;DHT22;47004;51.366;12.348;2024-01-15T10:14:24;1.70;99.90
18191;DHT22;47004;51.366;12.348;2024-01-15T10:16:28;1.60;99.90
18191;DHT22;47004;51.366;12.348;2024-01-15T10:18:30;1.60;99.90
18191;DHT22;47004;51.366;12.348;2024-01-15T10:20:32;1.60;99.90
18191;DHT22;47004;51.366;12.348;2024-01-15T10:22:35;1.60;99.90
18191;DHT22;47004;51.366;12.348;2024-01-15T10:24:40;1.60;99.90
18191;DHT22;47004;51.366;12.348;2024-01-15T10:26:42;1.60;99.90
18191;DHT22;47004;51.366;12.348;2024-01-15T10:28:45;1.60;99.90
18191;DHT22;47004;51.366;12.348;2024-01-15T10:30:46;1.60;99.90
18191;DHT22;47004;51.366;12.348;2024-01-15T10:32:57;1.60;99.90
18191;DHT22;47004;51.366;12.348;2024-01-15T10:35:00;1.90;99.90
18191;DHT22;47004;51.366;12.348;2024-01-15T10:37:02;1.60;99.90
18191;DHT22;47004;51.366;12.348;2024-01-15T10:39:04;1.60;99.90
18191;DHT22;47004;51.366;12.348;2024-01-15T10:41:08;1.60;99.90
18191;DHT22;47004;51.366;12.348;2024-01-15T10:43:09;1.70;99.90
18191;DHT22;47004;51.366;12.348;2024-01-15T10:45:11;1.70;99.90
18191;DHT22;47004;51.366;12.348;2024-01-15T10:47:12;1.70;99.90
18191;DHT22;47004;51.366;12.348;2024-01-15T10:49:16;1.70;99.90
18191;DHT22;47004;51.366;12.348;2024-01-15T10:51:20;1.80;99.90
18191;DHT22;47004;51.366;12.348;2024-01-15T10:53:23;1.70;99.90
18191;DHT22;47004;51.366;12.348;2024-01-15T10:55:26;1.80;99.90
18191;DHT22;47004;51.366;12.348;2024-01-15T10:57:29;1.90;99.90
18191;DHT22;47004;51.366;12.348;2024-01-15T10:59:30;1.70;99.90
18191;DHT22;47004;51.366;12.348;2024-01-15T11:01:33;1.80;99.90
18191;DHT22;47004;51.366;12.348;2024-01-15T11:03:36;1.80;99.90
18191;DHT22;47004;51.366;12.348;2024-01-15T11:05:42;2.00;99.90
18191;DHT22;47004;51.366;12.348;2024-01-15T11:07:43;1.80;99.90
18191;DHT22;47004;51.366;12.348;2024-01-15T11:09:47;1.80;99.90
18191;DHT22;47004;51.366;12.348;2024-01-15T11:11:51;1.80;99.90
18191;DHT22;47004;51.366;12.348;2024-01-15T11:13:53;1.80;99.90
18191;DHT22;47004;51.366;12.348;2024-01-15T11:15:58;1.90;99.90
18191;DHT22;47004;51.366;12.348;2024-01-15T11:18:01;1.90;99.90
18191;DHT22;47004;51.366;12.348;2024-01-15T11:20:06;1.90;99.90
18191;DHT22;47004;51.366;12.348;2024-01-15T11:22:11;1.90;99.90
18191;DHT22;47004;51.366;12.348;2024-01-15T11:24:37;1.90;99.90
18191;DHT22;47004;51.366;12.348;2024-01-15T11:26:44;1.90;99.90
18191;DHT22;47004;51.366;12.348;2024-01-15T11:28:49;1.90;99.90
18191;DHT22;47004;51.366;12.348;2024-01-15T11:30:53;1.90;99.90
18191;DHT22;47004;51.366;12.348;2024-01-15T11:32:55;1.90;99.90
18191;DHT22;47004;51.366;12.348;2024-01-15T11:34:59;1.90;99.90
18191;DHT22;47004;51.366;12.348;2024-01-15T11:37:02;1.90;99.90
18191;DHT22;47004;51.366;12.348;2024-01-15T11:41:41;1.90;99.90
18191;DHT22;47004;51.366;12.348;2024-01-15T11:43:43;2.00;99.90
18191;DHT22;47004;51.366;12.348;2024-01-15T11:45:45;1.90;99.90
18191;DHT22;47004;51.366;12.348;2024-01-15T11:48:09;2.00;99.90
18191;DHT22;47004;51.366;12.348;2024-01-15T11:50:12;2.00;99.90
18191;DHT22;47004;51.366;12.348;2024-01-15T11:52:17;2.00;99.90
18191;DHT22;47004;51.366;12.348;2024-01-15T11:54:20;1.90;99.90
18191;DHT22;47004;51.366;12.348;2024-01-15T11:56:23;1.90;99.90
18191;DHT22;47004;51.366;12.348;2024-01-15T11:58:27;1.90;99.90
18191;DHT22;47004;51.366;12.348;2024-01-15T12:00:29;1.90;99.90
18191;DHT22;47004;51.366;12.348;2024-01-15T12:02:31;2.00;99.90
18191;DHT22;47004;51.366;12.348;2024-01-15T12:04:32;2.00;99.90
18191;DHT22;47004;51.366;12.348;2024-01-15T12:06:34;2.10;99.90
18191;DHT22;47004;51.366;12.348;2024-01-15T12:08:37;2.10;99.90
18191;DHT22;47004;51.366;12.348;2024-01-15T12:10:39;2.10;99.90
18191;DHT22;47004;51.366;12.348;2024-01-15T12:12:57;2.20;99.90
18191;DHT22;47004;51.366;12.348;2024-01-15T12:15:01;2.20;99.90
18191;DHT22;47004;51.366;12.348;2024-01-15T12:17:04;2.30;99.90
18191;DHT22;47004;51.366;12.348;2024-01-15T12:19:06;2.30;99.90
18191;DHT22;47004;51.366;12.348;2024-01-15T12:21:09;2.30;99.90
18191;DHT22;47004;51.366;12.348;2024-01-15T12:23:11;2.40;99.90
18191;DHT22;47004;51.366;12.348;2024-01-15T12:25:14;2.40;99.90
18191;DHT22;47004;51.366;12.348;2024-01-15T12:27:15;2.30;99.90
18191;DHT22;47004;51.366;12.348;2024-01-15T12:29:18;2.30;99.90
18191;DHT22;47004;51.366;12.348;2024-01-15T12:31:21;2.30;99.90
18191;DHT22;47004;51.366;12.348;2024-01-15T12:33:23;2.30;99.90
18191;DHT22;47004;51.366;12.348;2024-01-15T12:35:25;2.30;99.90
18191;DHT22;47004;51.366;12.348;2024-01-15T12:37:29;2.30;99.90
18191;DHT22;47004;51.366;12.348;2024-01-15T12:39:31;2.30;99.90
18191;DHT22;47004;51.366;12.348;2024-01-15T12:41:35;2.40;99.90
18191;DHT22;47004;51.366;12.348;2024-01-15T12:43:37;2.40;99.90
18191;DHT22;47004;51.366;12.348;2024-01-15T12:45:39;2.40;99.90
18191;DHT22;47004;51.366;12.348;2024-01-15T12:47:43;2.50;99.90
18191;DHT22;47004;51.366;12.348;2024-01-15T12:49:47;2.50;99.90
18191;DHT22;47004;51.366;12.348;2024-01-15T12:51:53;2.60;99.90
18191;DHT22;47004;51.366;12.348;2024-01-15T12:53:55;2.60;99.90
18191;DHT22;47004;51.366;12.348;2024-01-15T12:55:57;2.50;99.90